Time,TemperatureF,DewpointF,PressureIn,WindDirection,WindDirectionDegrees,WindSpeedMPH,WindSpeedGustMPH,Humidity,HourlyPrecipIn,Conditions,Clouds,dailyrainin,SoftwareType,DateUTC
2013-05-16 00:00:00,63.1,35.8,28.58,ENE,68,5.8,7.4,36,0.00,,,0.00,VWS V14.01,2013-05-16 05:00:00,
2013-05-16 00:05:00,63.5,36.1,28.58,ESE,112,4.3,6.3,36,0.00,,,0.00,VWS V14.01,2013-05-16 05:05:00,
2013-05-16 00:10:00,63.1,35.8,28.58,ESE,112,4.3,6.3,36,0.00,,,0.00,VWS V14.01,2013-05-16 05:10:00,
2013-05-16 00:15:00,63.0,35.6,28.58,ESE,112,3.8,6.0,36,0.00,,,0.00,VWS V14.01,2013-05-16 05:15:00,
2013-05-16 00:20:00,62.8,36.2,28.58,ENE,68,3.4,4.7,37,0.00,,,0.00,VWS V14.01,2013-05-16 05:20:00,
2013-05-16 00:25:00,63.1,35.8,28.58,ESE,112,4.5,5.8,36,0.00,,,0.00,VWS V14.01,2013-05-16 05:25:00,
2013-05-16 00:30:00,62.4,35.8,28.58,ENE,68,3.8,5.4,37,0.00,,,0.00,VWS V14.01,2013-05-16 05:30:00,
2013-05-16 00:35:00,62.1,35.5,28.58,ENE,68,2.9,4.3,37,0.00,,,0.00,VWS V14.01,2013-05-16 05:35:00,
2013-05-16 00:40:00,61.3,34.9,28.58,ENE,68,3.6,3.6,37,0.00,,,0.00,VWS V14.01,2013-05-16 05:40:00,
2013-05-16 00:45:00,61.0,34.5,28.58,ENE,68,3.4,3.6,37,0.00,,,0.00,VWS V14.01,2013-05-16 05:45:00,
2013-05-16 00:50:00,60.6,34.9,28.58,ENE,68,2.0,3.4,38,0.00,,,0.00,VWS V14.01,2013-05-16 05:50:00,
2013-05-16 00:55:00,60.4,34.1,28.58,ENE,68,2.7,2.9,37,0.00,,,0.00,VWS V14.01,2013-05-16 05:55:00,
2013-05-16 01:00:00,60.4,34.7,28.58,ENE,68,2.9,3.1,38,0.00,,,0.00,VWS V14.01,2013-05-16 06:00:00,
2013-05-16 01:05:00,60.3,35.9,28.58,ENE,68,3.1,3.1,40,0.00,,,0.00,VWS V14.01,2013-05-16 06:05:00,
2013-05-16 01:10:00,60.4,35.4,28.58,ENE,68,3.4,3.4,39,0.00,,,0.00,VWS V14.01,2013-05-16 06:10:00,
2013-05-16 01:15:00,60.6,35.5,28.58,ENE,68,2.2,3.6,39,0.00,,,0.00,VWS V14.01,2013-05-16 06:15:00,
2013-05-16 01:20:00,60.4,34.7,28.58,NE,45,3.1,3.1,38,0.00,,,0.00,VWS V14.01,2013-05-16 06:20:00,
2013-05-16 01:25:00,60.3,34.6,28.58,NE,45,2.7,3.4,38,0.00,,,0.00,VWS V14.01,2013-05-16 06:25:00,
2013-05-16 01:30:00,60.3,35.2,28.58,NNE,22,3.4,3.6,39,0.00,,,0.00,VWS V14.01,2013-05-16 06:30:00,
2013-05-16 01:35:00,60.3,35.2,28.58,NNE,22,3.4,3.6,39,0.00,,,0.00,VWS V14.01,2013-05-16 06:35:00,
2013-05-16 01:40:00,60.3,35.9,28.58,NNE,22,3.4,3.8,40,0.00,,,0.00,VWS V14.01,2013-05-16 06:40:00,
2013-05-16 01:45:00,60.1,35.7,28.58,NE,45,3.4,3.8,40,0.00,,,0.00,VWS V14.01,2013-05-16 06:45:00,
2013-05-16 01:50:00,59.5,34.6,28.58,NE,45,3.6,3.6,39,0.00,,,0.00,VWS V14.01,2013-05-16 06:50:00,
2013-05-16 01:55:00,59.4,35.1,28.58,NE,45,3.1,3.8,40,0.00,,,0.00,VWS V14.01,2013-05-16 06:55:00,
2013-05-16 02:00:00,58.8,35.2,28.58,ENE,68,2.9,3.1,41,0.00,,,0.00,VWS V14.01,2013-05-16 07:00:00,
2013-05-16 02:05:00,59.2,35.5,28.58,ENE,68,3.4,3.6,41,0.00,,,0.00,VWS V14.01,2013-05-16 07:05:00,
2013-05-16 02:10:00,59.5,35.8,28.58,NE,45,3.4,3.4,41,0.00,,,0.00,VWS V14.01,2013-05-16 07:10:00,
2013-05-16 02:15:00,59.7,36.0,28.58,NNE,22,2.7,3.6,41,0.00,,,0.00,VWS V14.01,2013-05-16 07:15:00,
2013-05-16 02:20:00,59.4,35.7,28.58,NE,45,2.9,2.9,41,0.00,,,0.00,VWS V14.01,2013-05-16 07:20:00,
2013-05-16 02:25:00,59.0,34.7,28.58,NE,45,2.0,2.9,40,0.00,,,0.00,VWS V14.01,2013-05-16 07:25:00,
2013-05-16 02:30:00,57.9,34.4,28.58,NE,45,0.0,2.0,41,0.00,,,0.00,VWS V14.01,2013-05-16 07:30:00,
2013-05-16 02:35:00,57.0,34.2,28.58,ESE,112,0.0,0.9,42,0.00,,,0.00,VWS V14.01,2013-05-16 07:35:00,
2013-05-16 02:40:00,56.3,33.5,28.58,ESE,112,0.0,0.0,42,0.00,,,0.00,VWS V14.01,2013-05-16 07:40:00,
2013-05-16 02:45:00,55.8,33.6,28.58,ESE,112,0.0,0.0,43,0.00,,,0.00,VWS V14.01,2013-05-16 07:45:00,
2013-05-16 02:50:00,55.2,34.3,28.58,ESE,112,1.1,1.1,45,0.00,,,0.00,VWS V14.01,2013-05-16 07:50:00,
2013-05-16 02:55:00,54.7,34.3,28.58,ESE,112,0.0,1.1,46,0.00,,,0.00,VWS V14.01,2013-05-16 07:55:00,
2013-05-16 03:00:00,55.0,34.7,28.58,ESE,112,0.0,0.0,46,0.00,,,0.00,VWS V14.01,2013-05-16 08:00:00,
2013-05-16 03:05:00,55.0,34.7,28.58,ESE,112,0.0,0.0,46,0.00,,,0.00,VWS V14.01,2013-05-16 08:05:00,
2013-05-16 03:10:00,54.9,34.5,28.58,ESE,112,0.0,0.0,46,0.00,,,0.00,VWS V14.01,2013-05-16 08:10:00,
2013-05-16 03:15:00,55.0,35.2,28.58,ESE,112,0.0,0.0,47,0.00,,,0.00,VWS V14.01,2013-05-16 08:15:00,
2013-05-16 03:20:00,55.0,35.2,28.58,ESE,112,0.0,0.0,47,0.00,,,0.00,VWS V14.01,2013-05-16 08:20:00,
2013-05-16 03:25:00,54.7,34.9,28.58,ESE,112,0.0,0.0,47,0.00,,,0.00,VWS V14.01,2013-05-16 08:25:00,
2013-05-16 03:30:00,54.3,34.5,28.58,ESE,112,0.0,0.0,47,0.00,,,0.00,VWS V14.01,2013-05-16 08:30:00,
2013-05-16 03:35:00,54.5,34.7,28.58,ESE,112,0.0,0.0,47,0.00,,,0.00,VWS V14.01,2013-05-16 08:35:00,
2013-05-16 03:40:00,54.5,35.2,28.58,ESE,112,0.0,0.0,48,0.00,,,0.00,VWS V14.01,2013-05-16 08:40:00,
2013-05-16 03:45:00,54.5,35.2,28.58,ESE,112,0.0,0.0,48,0.00,,,0.00,VWS V14.01,2013-05-16 08:45:00,
2013-05-16 03:50:00,54.7,35.4,28.58,NNE,22,0.0,0.0,48,0.00,,,0.00,VWS V14.01,2013-05-16 08:50:00,
2013-05-16 03:55:00,54.5,35.2,28.58,NNE,22,0.0,0.0,48,0.00,,,0.00,VWS V14.01,2013-05-16 08:55:00,
2013-05-16 04:00:00,54.3,35.6,28.58,NNE,22,0.0,0.0,49,0.00,,,0.00,VWS V14.01,2013-05-16 09:00:00,
2013-05-16 04:05:00,53.8,35.1,28.58,NNE,22,0.0,0.0,49,0.00,,,0.00,VWS V14.01,2013-05-16 09:05:00,
2013-05-16 04:10:00,53.4,34.8,28.58,ENE,68,0.0,0.0,49,0.00,,,0.00,VWS V14.01,2013-05-16 09:10:00,
2013-05-16 04:15:00,53.6,34.9,28.58,ENE,68,0.0,0.0,49,0.00,,,0.00,VWS V14.01,2013-05-16 09:15:00,
2013-05-16 04:20:00,53.8,35.1,28.58,ENE,68,0.0,0.0,49,0.00,,,0.00,VWS V14.01,2013-05-16 09:20:00,
2013-05-16 04:25:00,53.8,35.1,28.58,ENE,68,0.0,0.0,49,0.00,,,0.00,VWS V14.01,2013-05-16 09:25:00,
2013-05-16 04:30:00,54.1,35.4,28.58,ENE,68,0.0,0.0,49,0.00,,,0.00,VWS V14.01,2013-05-16 09:30:00,
2013-05-16 04:35:00,54.3,36.1,28.58,ENE,68,0.0,0.0,50,0.00,,,0.00,VWS V14.01,2013-05-16 09:35:00,
2013-05-16 04:40:00,54.3,36.1,28.58,ENE,68,0.0,0.0,50,0.00,,,0.00,VWS V14.01,2013-05-16 09:40:00,
2013-05-16 04:45:00,54.0,35.8,28.58,ENE,68,0.0,0.0,50,0.00,,,0.00,VWS V14.01,2013-05-16 09:45:00,
2013-05-16 04:50:00,54.3,36.1,28.58,ENE,68,0.0,0.0,50,0.00,,,0.00,VWS V14.01,2013-05-16 09:50:00,
2013-05-16 04:55:00,54.3,36.1,28.58,ENE,68,0.0,0.0,50,0.00,,,0.00,VWS V14.01,2013-05-16 09:55:00,
2013-05-16 05:00:00,54.1,35.9,28.58,East,90,0.0,0.0,50,0.00,,,0.00,VWS V14.01,2013-05-16 10:00:00,
2013-05-16 05:05:00,54.0,35.8,28.58,East,90,0.0,0.0,50,0.00,,,0.00,VWS V14.01,2013-05-16 10:05:00,
2013-05-16 05:10:00,54.1,36.4,28.58,ENE,68,0.0,1.1,51,0.00,,,0.00,VWS V14.01,2013-05-16 10:10:00,
2013-05-16 05:15:00,55.6,37.8,28.58,NE,45,2.5,3.1,51,0.00,,,0.00,VWS V14.01,2013-05-16 10:15:00,
2013-05-16 05:20:00,55.4,37.1,28.58,NNE,22,3.4,3.4,50,0.00,,,0.00,VWS V14.01,2013-05-16 10:20:00,
2013-05-16 05:25:00,56.3,38.4,28.58,NNE,22,3.1,3.8,51,0.00,,,0.00,VWS V14.01,2013-05-16 10:25:00,
2013-05-16 05:30:00,56.8,38.4,28.58,NNW,338,3.4,4.0,50,0.00,,,0.00,VWS V14.01,2013-05-16 10:30:00,
2013-05-16 05:35:00,56.5,37.6,28.58,NNE,22,0.0,3.4,49,0.00,,,0.00,VWS V14.01,2013-05-16 10:35:00,
2013-05-16 05:40:00,55.8,36.4,28.58,NE,45,2.2,3.1,48,0.00,,,0.00,VWS V14.01,2013-05-16 10:40:00,
2013-05-16 05:45:00,54.7,35.4,28.58,NE,45,4.5,4.5,48,0.00,,,0.00,VWS V14.01,2013-05-16 10:45:00,
2013-05-16 05:50:00,54.3,35.6,28.58,NE,45,4.3,4.7,49,0.00,,,0.00,VWS V14.01,2013-05-16 10:50:00,
2013-05-16 05:55:00,54.0,36.3,28.58,NE,45,4.0,5.4,51,0.00,,,0.00,VWS V14.01,2013-05-16 10:55:00,
2013-05-16 06:00:00,53.4,36.2,28.58,ENE,68,4.5,5.4,52,0.00,,,0.00,VWS V14.01,2013-05-16 11:00:00,
2013-05-16 06:05:00,53.1,36.4,28.58,NE,45,5.8,5.8,53,0.00,,,0.00,VWS V14.01,2013-05-16 11:05:00,
2013-05-16 06:10:00,53.1,36.9,28.58,NE,45,4.5,5.8,54,0.00,,,0.00,VWS V14.01,2013-05-16 11:10:00,
2013-05-16 06:15:00,53.2,37.0,28.58,ENE,68,3.8,4.5,54,0.00,,,0.00,VWS V14.01,2013-05-16 11:15:00,
2013-05-16 06:20:00,53.4,37.2,28.58,NE,45,4.5,4.5,54,0.00,,,0.00,VWS V14.01,2013-05-16 11:20:00,
2013-05-16 06:25:00,54.0,38.2,28.58,NE,45,4.9,4.9,55,0.00,,,0.00,VWS V14.01,2013-05-16 11:25:00,
2013-05-16 06:30:00,54.7,38.4,28.58,NE,45,4.3,4.9,54,0.00,,,0.00,VWS V14.01,2013-05-16 11:30:00,
2013-05-16 06:35:00,55.2,38.4,28.58,NE,45,4.7,5.4,53,0.00,,,0.00,VWS V14.01,2013-05-16 11:35:00,
2013-05-16 06:40:00,55.9,38.6,28.58,NE,45,5.4,5.4,52,0.00,,,0.00,VWS V14.01,2013-05-16 11:40:00,
2013-05-16 06:45:00,56.5,39.1,28.58,NE,45,5.4,5.8,52,0.00,,,0.00,VWS V14.01,2013-05-16 11:45:00,
2013-05-16 06:50:00,57.2,39.2,28.58,NE,45,4.0,5.4,51,0.00,,,0.00,VWS V14.01,2013-05-16 11:50:00,
2013-05-16 06:55:00,58.1,39.6,28.58,ENE,68,3.6,4.3,50,0.00,,,0.00,VWS V14.01,2013-05-16 11:55:00,
2013-05-16 07:00:00,59.4,40.7,28.58,NE,45,4.9,5.6,50,0.00,,,0.00,VWS V14.01,2013-05-16 12:00:00,
2013-05-16 07:05:00,60.4,40.7,28.58,ENE,68,4.0,5.6,48,0.00,,,0.00,VWS V14.01,2013-05-16 12:05:00,
2013-05-16 07:10:00,61.5,41.7,28.61,ENE,68,5.4,5.4,48,0.00,,,0.00,VWS V14.01,2013-05-16 12:10:00,
2013-05-16 07:15:00,62.6,41.0,28.61,ENE,68,5.4,5.6,45,0.00,,,0.00,VWS V14.01,2013-05-16 12:15:00,
2013-05-16 07:20:00,63.3,41.1,28.61,ENE,68,4.9,6.0,44,0.00,,,0.00,VWS V14.01,2013-05-16 12:20:00,
2013-05-16 07:25:00,64.4,41.4,28.61,ENE,68,4.9,5.8,43,0.00,,,0.00,VWS V14.01,2013-05-16 12:25:00,
2013-05-16 07:30:00,65.1,41.5,28.61,NE,45,4.5,6.0,42,0.00,,,0.00,VWS V14.01,2013-05-16 12:30:00,
2013-05-16 07:35:00,65.8,42.1,28.61,ENE,68,4.3,7.2,42,0.00,,,0.00,VWS V14.01,2013-05-16 12:35:00,
2013-05-16 07:40:00,66.4,42.0,28.61,ENE,68,4.0,6.5,41,0.00,,,0.00,VWS V14.01,2013-05-16 12:40:00,
2013-05-16 07:45:00,67.3,41.5,28.61,ENE,68,6.5,6.5,39,0.00,,,0.00,VWS V14.01,2013-05-16 12:45:00,
2013-05-16 07:50:00,67.6,41.2,28.61,ENE,68,6.3,6.5,38,0.00,,,0.00,VWS V14.01,2013-05-16 12:50:00,
2013-05-16 07:55:00,68.4,40.4,28.61,ENE,68,7.2,7.6,36,0.00,,,0.00,VWS V14.01,2013-05-16 12:55:00,
2013-05-16 08:00:00,69.1,40.3,28.61,ENE,68,7.4,7.6,35,0.00,,,0.00,VWS V14.01,2013-05-16 13:00:00,
2013-05-16 08:05:00,69.8,40.2,28.61,East,90,6.3,7.6,34,0.00,,,0.00,VWS V14.01,2013-05-16 13:05:00,
2013-05-16 08:10:00,70.5,40.8,28.61,ENE,68,5.6,7.8,34,0.00,,,0.00,VWS V14.01,2013-05-16 13:10:00,
2013-05-16 08:15:00,71.1,40.5,28.61,ENE,68,8.1,9.6,33,0.00,,,0.00,VWS V14.01,2013-05-16 13:15:00,
2013-05-16 08:20:00,71.4,40.8,28.61,ENE,68,4.3,8.1,33,0.00,,,0.00,VWS V14.01,2013-05-16 13:20:00,
2013-05-16 08:25:00,72.0,40.5,28.61,ESE,112,7.6,8.1,32,0.00,,,0.00,VWS V14.01,2013-05-16 13:25:00,
2013-05-16 08:30:00,72.3,40.8,28.61,ESE,112,7.6,10.3,32,0.00,,,0.00,VWS V14.01,2013-05-16 13:30:00,
2013-05-16 08:35:00,72.5,41.0,28.61,SE,135,7.6,8.7,32,0.00,,,0.00,VWS V14.01,2013-05-16 13:35:00,
2013-05-16 08:40:00,72.7,41.2,28.61,East,90,8.1,10.1,32,0.00,,,0.00,VWS V14.01,2013-05-16 13:40:00,
2013-05-16 08:45:00,73.0,41.5,28.61,ESE,112,7.4,9.6,32,0.00,,,0.00,VWS V14.01,2013-05-16 13:45:00,
2013-05-16 08:50:00,73.6,41.1,28.61,SE,135,5.4,9.8,31,0.00,,,0.00,VWS V14.01,2013-05-16 13:50:00,
2013-05-16 08:55:00,74.1,41.6,28.61,ESE,112,7.4,8.1,31,0.00,,,0.00,VWS V14.01,2013-05-16 13:55:00,
2013-05-16 09:00:00,74.7,42.0,28.61,SE,135,5.8,8.7,31,0.00,,,0.00,VWS V14.01,2013-05-16 14:00:00,
2013-05-16 09:05:00,75.0,42.4,28.61,ESE,112,8.1,8.5,31,0.00,,,0.00,VWS V14.01,2013-05-16 14:05:00,
2013-05-16 09:10:00,75.4,41.8,28.61,ESE,112,5.6,9.8,30,0.00,,,0.00,VWS V14.01,2013-05-16 14:10:00,
2013-05-16 09:15:00,76.1,42.5,28.61,ESE,112,6.5,10.5,30,0.00,,,0.00,VWS V14.01,2013-05-16 14:15:00,
2013-05-16 09:20:00,76.3,42.6,28.61,SE,135,6.7,10.3,30,0.00,,,0.00,VWS V14.01,2013-05-16 14:20:00,
2013-05-16 09:25:00,76.6,42.0,28.61,SE,135,4.9,9.2,29,0.00,,,0.00,VWS V14.01,2013-05-16 14:25:00,
2013-05-16 09:30:00,77.4,41.7,28.61,ESE,112,6.3,9.8,28,0.00,,,0.00,VWS V14.01,2013-05-16 14:30:00,
2013-05-16 09:35:00,77.9,42.2,28.61,ESE,112,4.3,10.1,28,0.00,,,0.00,VWS V14.01,2013-05-16 14:35:00,
2013-05-16 09:40:00,78.3,41.6,28.61,ESE,112,6.3,9.8,27,0.00,,,0.00,VWS V14.01,2013-05-16 14:40:00,
2013-05-16 09:45:00,78.1,41.4,28.61,ESE,112,6.7,10.1,27,0.00,,,0.00,VWS V14.01,2013-05-16 14:45:00,
2013-05-16 09:50:00,79.2,40.3,28.61,ESE,112,7.8,9.8,25,0.00,,,0.00,VWS V14.01,2013-05-16 14:50:00,
2013-05-16 09:55:00,80.1,41.1,28.61,ESE,112,4.3,7.8,25,0.00,,,0.00,VWS V14.01,2013-05-16 14:55:00,
2013-05-16 10:00:00,80.2,41.3,28.61,ESE,112,4.3,8.7,25,0.00,,,0.00,VWS V14.01,2013-05-16 15:00:00,
2013-05-16 10:05:00,80.8,40.7,28.61,ENE,68,6.5,10.1,24,0.00,,,0.00,VWS V14.01,2013-05-16 15:05:00,
2013-05-16 10:10:00,81.0,39.7,28.61,ESE,112,6.3,11.0,23,0.00,,,0.00,VWS V14.01,2013-05-16 15:10:00,
2013-05-16 10:15:00,81.0,39.7,28.61,SE,135,8.5,8.7,23,0.00,,,0.00,VWS V14.01,2013-05-16 15:15:00,
2013-05-16 10:20:00,81.5,39.0,28.61,ESE,112,10.3,10.7,22,0.00,,,0.00,VWS V14.01,2013-05-16 15:20:00,
2013-05-16 10:25:00,81.3,40.0,28.58,ESE,112,10.1,12.1,23,0.00,,,0.00,VWS V14.01,2013-05-16 15:25:00,
2013-05-16 10:30:00,82.0,39.5,28.58,ESE,112,5.8,13.0,22,0.00,,,0.00,VWS V14.01,2013-05-16 15:30:00,
2013-05-16 10:35:00,82.2,39.6,28.58,ESE,112,10.1,12.5,22,0.00,,,0.00,VWS V14.01,2013-05-16 15:35:00,
2013-05-16 10:40:00,82.0,39.5,28.58,SE,135,5.8,12.8,22,0.00,,,0.00,VWS V14.01,2013-05-16 15:40:00,
2013-05-16 10:45:00,82.2,39.6,28.58,ESE,112,11.0,13.0,22,0.00,,,0.00,VWS V14.01,2013-05-16 15:45:00,
2013-05-16 10:50:00,82.2,38.4,28.58,East,90,8.7,16.3,21,0.00,,,0.00,VWS V14.01,2013-05-16 15:50:00,
2013-05-16 10:55:00,82.6,38.7,28.58,ESE,112,8.7,12.5,21,0.00,,,0.00,VWS V14.01,2013-05-16 15:55:00,
2013-05-16 11:00:00,83.3,39.3,28.58,SE,135,8.7,13.2,21,0.00,,,0.00,VWS V14.01,2013-05-16 16:00:00,
2013-05-16 11:05:00,83.3,39.3,28.58,SSE,158,8.1,13.2,21,0.00,,,0.00,VWS V14.01,2013-05-16 16:05:00,
2013-05-16 11:10:00,82.8,38.9,28.58,SE,135,6.3,13.2,21,0.00,,,0.00,VWS V14.01,2013-05-16 16:10:00,
2013-05-16 11:15:00,83.1,39.2,28.58,ESE,112,10.7,13.4,21,0.00,,,0.00,VWS V14.01,2013-05-16 16:15:00,
2013-05-16 11:20:00,83.7,39.6,28.58,ESE,112,6.5,12.5,21,0.00,,,0.00,VWS V14.01,2013-05-16 16:20:00,
2013-05-16 11:25:00,84.0,38.7,28.58,ESE,112,15.2,15.2,20,0.00,,,0.00,VWS V14.01,2013-05-16 16:25:00,
2013-05-16 11:30:00,84.0,38.7,28.58,ENE,68,13.0,15.2,20,0.00,,,0.00,VWS V14.01,2013-05-16 16:30:00,
2013-05-16 11:35:00,84.0,38.7,28.58,SE,135,8.7,15.4,20,0.00,,,0.00,VWS V14.01,2013-05-16 16:35:00,
2013-05-16 11:40:00,84.2,38.8,28.58,ESE,112,8.7,18.6,20,0.00,,,0.00,VWS V14.01,2013-05-16 16:40:00,
2013-05-16 11:45:00,84.9,39.4,28.58,East,90,9.0,15.7,20,0.00,,,0.00,VWS V14.01,2013-05-16 16:45:00,
2013-05-16 11:50:00,85.3,39.7,28.58,SE,135,13.0,13.2,20,0.00,,,0.00,VWS V14.01,2013-05-16 16:50:00,
2013-05-16 11:55:00,84.9,39.4,28.58,ESE,112,12.8,16.3,20,0.00,,,0.00,VWS V14.01,2013-05-16 16:55:00,
2013-05-16 12:00:00,85.3,38.4,28.58,ESE,112,12.5,15.7,19,0.00,,,0.00,VWS V14.01,2013-05-16 17:00:00,
2013-05-16 12:05:00,86.2,39.1,28.58,ESE,112,7.6,14.3,19,0.00,,,0.00,VWS V14.01,2013-05-16 17:05:00,
2013-05-16 12:10:00,85.6,40.0,28.58,ESE,112,8.1,17.0,20,0.00,,,0.00,VWS V14.01,2013-05-16 17:10:00,
2013-05-16 12:15:00,86.5,39.4,28.58,ESE,112,8.5,14.5,19,0.00,,,0.00,VWS V14.01,2013-05-16 17:15:00,
2013-05-16 12:20:00,86.2,39.1,28.58,ESE,112,10.1,13.4,19,0.00,,,0.00,VWS V14.01,2013-05-16 17:20:00,
2013-05-16 12:25:00,86.4,39.3,28.55,SE,135,11.0,14.1,19,0.00,,,0.00,VWS V14.01,2013-05-16 17:25:00,
2013-05-16 12:30:00,86.4,39.3,28.55,ESE,112,15.2,15.4,19,0.00,,,0.00,VWS V14.01,2013-05-16 17:30:00,
2013-05-16 12:35:00,86.2,39.1,28.55,ESE,112,12.8,16.8,19,0.00,,,0.00,VWS V14.01,2013-05-16 17:35:00,
2013-05-16 12:40:00,85.8,38.8,28.55,SE,135,10.7,17.5,19,0.00,,,0.00,VWS V14.01,2013-05-16 17:40:00,
2013-05-16 12:45:00,86.4,39.3,28.55,SE,135,15.7,16.8,19,0.00,,,0.00,VWS V14.01,2013-05-16 17:45:00,
2013-05-16 12:50:00,86.7,39.6,28.55,ESE,112,6.3,15.7,19,0.00,,,0.00,VWS V14.01,2013-05-16 17:50:00,
2013-05-16 12:55:00,87.3,40.0,28.55,ESE,112,6.5,11.2,19,0.00,,,0.00,VWS V14.01,2013-05-16 17:55:00,
2013-05-16 13:00:00,87.4,40.2,28.55,ESE,112,10.5,13.2,19,0.00,,,0.00,VWS V14.01,2013-05-16 18:00:00,
2013-05-16 13:05:00,88.0,39.2,28.55,ESE,112,6.3,17.0,18,0.00,,,0.00,VWS V14.01,2013-05-16 18:05:00,
2013-05-16 13:10:00,87.8,39.1,28.55,ESE,112,8.5,15.2,18,0.00,,,0.00,VWS V14.01,2013-05-16 18:10:00,
2013-05-16 13:15:00,88.0,39.2,28.55,ESE,112,8.7,13.9,18,0.00,,,0.00,VWS V14.01,2013-05-16 18:15:00,
2013-05-16 13:20:00,87.8,39.1,28.55,SE,135,13.2,19.5,18,0.00,,,0.00,VWS V14.01,2013-05-16 18:20:00,
2013-05-16 13:25:00,87.6,38.9,28.52,SE,135,5.6,17.7,18,0.00,,,0.00,VWS V14.01,2013-05-16 18:25:00,
2013-05-16 13:30:00,88.3,39.5,28.52,ESE,112,8.7,15.2,18,0.00,,,0.00,VWS V14.01,2013-05-16 18:30:00,
2013-05-16 13:35:00,88.2,39.4,28.52,ENE,68,9.2,17.7,18,0.00,,,0.00,VWS V14.01,2013-05-16 18:35:00,
2013-05-16 13:40:00,88.0,39.2,28.52,SE,135,10.3,17.7,18,0.00,,,0.00,VWS V14.01,2013-05-16 18:40:00,
2013-05-16 13:45:00,88.5,39.7,28.52,SE,135,10.1,16.1,18,0.00,,,0.00,VWS V14.01,2013-05-16 18:45:00,
2013-05-16 13:50:00,88.5,39.7,28.52,ESE,112,14.3,19.2,18,0.00,,,0.00,VWS V14.01,2013-05-16 18:50:00,
2013-05-16 13:55:00,89.1,40.1,28.52,ESE,112,9.4,14.5,18,0.00,,,0.00,VWS V14.01,2013-05-16 18:55:00,
2013-05-16 14:00:00,88.7,39.8,28.52,East,90,12.8,14.8,18,0.00,,,0.00,VWS V14.01,2013-05-16 19:00:00,
2013-05-16 14:05:00,88.9,39.9,28.52,ESE,112,8.7,14.8,18,0.00,,,0.00,VWS V14.01,2013-05-16 19:05:00,
2013-05-16 14:10:00,88.3,39.5,28.52,SE,135,15.4,17.0,18,0.00,,,0.00,VWS V14.01,2013-05-16 19:10:00,
2013-05-16 14:15:00,88.2,39.4,28.52,ESE,112,12.5,22.4,18,0.00,,,0.00,VWS V14.01,2013-05-16 19:15:00,
2013-05-16 14:20:00,88.0,39.2,28.52,ENE,68,12.5,13.0,18,0.00,,,0.00,VWS V14.01,2013-05-16 19:20:00,
2013-05-16 14:25:00,88.2,39.4,28.52,ESE,112,11.2,16.1,18,0.00,,,0.00,VWS V14.01,2013-05-16 19:25:00,
2013-05-16 14:30:00,88.2,39.4,28.52,ESE,112,10.3,17.5,18,0.00,,,0.00,VWS V14.01,2013-05-16 19:30:00,
2013-05-16 14:35:00,88.7,39.8,28.52,ESE,112,9.2,14.8,18,0.00,,,0.00,VWS V14.01,2013-05-16 19:35:00,
2013-05-16 14:40:00,89.4,40.4,28.52,SE,135,11.9,13.0,18,0.00,,,0.00,VWS V14.01,2013-05-16 19:40:00,
2013-05-16 14:45:00,88.9,39.9,28.52,East,90,10.7,14.5,18,0.00,,,0.00,VWS V14.01,2013-05-16 19:45:00,
2013-05-16 14:50:00,88.3,39.5,28.52,ESE,112,10.5,17.2,18,0.00,,,0.00,VWS V14.01,2013-05-16 19:50:00,
2013-05-16 14:55:00,88.7,39.8,28.52,SE,135,24.4,24.4,18,0.00,,,0.00,VWS V14.01,2013-05-16 19:55:00,
2013-05-16 15:00:00,88.3,39.5,28.52,ESE,112,10.7,24.4,18,0.00,,,0.00,VWS V14.01,2013-05-16 20:00:00,
2013-05-16 15:05:00,88.7,39.8,28.52,SE,135,8.7,15.2,18,0.00,,,0.00,VWS V14.01,2013-05-16 20:05:00,
2013-05-16 15:10:00,88.5,39.7,28.52,SSE,158,10.7,19.7,18,0.00,,,0.00,VWS V14.01,2013-05-16 20:10:00,
2013-05-16 15:15:00,88.9,39.9,28.52,SSW,202,14.5,19.7,18,0.00,,,0.00,VWS V14.01,2013-05-16 20:15:00,
2013-05-16 15:20:00,88.9,39.9,28.52,SSE,158,17.5,21.9,18,0.00,,,0.00,VWS V14.01,2013-05-16 20:20:00,
2013-05-16 15:25:00,88.7,39.8,28.52,ESE,112,8.1,21.5,18,0.00,,,0.00,VWS V14.01,2013-05-16 20:25:00,
2013-05-16 15:30:00,88.9,39.9,28.52,ESE,112,11.0,17.9,18,0.00,,,0.00,VWS V14.01,2013-05-16 20:30:00,
2013-05-16 15:35:00,88.7,39.8,28.52,SE,135,17.2,19.0,18,0.00,,,0.00,VWS V14.01,2013-05-16 20:35:00,
2013-05-16 15:40:00,89.1,41.5,28.52,SE,135,16.1,20.4,19,0.00,,,0.00,VWS V14.01,2013-05-16 20:40:00,
2013-05-16 15:45:00,87.3,40.0,28.52,ESE,112,12.1,19.7,19,0.00,,,0.00,VWS V14.01,2013-05-16 20:45:00,
2013-05-16 15:50:00,86.7,39.6,28.52,SE,135,9.0,15.2,19,0.00,,,0.00,VWS V14.01,2013-05-16 20:50:00,
2013-05-16 15:55:00,86.9,39.7,28.52,SSE,158,17.9,24.6,19,0.00,,,0.00,VWS V14.01,2013-05-16 20:55:00,
2013-05-16 16:00:00,85.6,40.0,28.52,SSE,158,12.8,19.5,20,0.00,,,0.00,VWS V14.01,2013-05-16 21:00:00,
2013-05-16 16:05:00,85.1,39.6,28.52,SE,135,19.5,19.7,20,0.00,,,0.00,VWS V14.01,2013-05-16 21:05:00,
2013-05-16 16:10:00,84.7,40.5,28.52,SSE,158,12.8,19.5,21,0.00,,,0.00,VWS V14.01,2013-05-16 21:10:00,
2013-05-16 16:15:00,84.4,40.2,28.52,SE,135,17.5,17.5,21,0.00,,,0.00,VWS V14.01,2013-05-16 21:15:00,
2013-05-16 16:20:00,83.5,40.7,28.52,SE,135,13.2,23.7,22,0.00,,,0.00,VWS V14.01,2013-05-16 21:20:00,
2013-05-16 16:25:00,83.8,41.0,28.52,SSE,158,11.9,15.2,22,0.00,,,0.00,VWS V14.01,2013-05-16 21:25:00,
2013-05-16 16:30:00,84.4,42.6,28.52,ESE,112,15.4,17.5,23,0.00,,,0.00,VWS V14.01,2013-05-16 21:30:00,
2013-05-16 16:35:00,84.9,43.0,28.52,SE,135,16.1,21.9,23,0.00,,,0.00,VWS V14.01,2013-05-16 21:35:00,
2013-05-16 16:40:00,85.3,43.3,28.50,SSE,158,17.9,19.7,23,0.00,,,0.00,VWS V14.01,2013-05-16 21:40:00,
2013-05-16 16:45:00,84.2,42.4,28.50,SSE,158,15.4,22.6,23,0.00,,,0.00,VWS V14.01,2013-05-16 21:45:00,
2013-05-16 16:50:00,83.3,42.8,28.50,SE,135,17.5,23.0,24,0.00,,,0.00,VWS V14.01,2013-05-16 21:50:00,
2013-05-16 16:55:00,82.6,42.2,28.50,ESE,112,12.8,20.8,24,0.00,,,0.00,VWS V14.01,2013-05-16 21:55:00,
2013-05-16 17:00:00,82.0,42.8,28.50,SE,135,16.3,16.3,25,0.00,,,0.00,VWS V14.01,2013-05-16 22:00:00,
2013-05-16 17:05:00,81.7,43.5,28.50,ESE,112,15.7,16.3,26,0.00,,,0.00,VWS V14.01,2013-05-16 22:05:00,
2013-05-16 17:10:00,81.5,44.3,28.50,SE,135,14.5,15.7,27,0.00,,,0.00,VWS V14.01,2013-05-16 22:10:00,
2013-05-16 17:15:00,81.3,45.1,28.50,SE,135,10.5,14.5,28,0.00,,,0.00,VWS V14.01,2013-05-16 22:15:00,
2013-05-16 17:20:00,81.1,45.9,28.50,SE,135,12.5,19.2,29,0.00,,,0.00,VWS V14.01,2013-05-16 22:20:00,
2013-05-16 17:25:00,81.0,46.6,28.50,SE,135,14.5,16.1,30,0.00,,,0.00,VWS V14.01,2013-05-16 22:25:00,
2013-05-16 17:30:00,80.8,46.5,28.50,ESE,112,12.3,15.9,30,0.00,,,0.00,VWS V14.01,2013-05-16 22:30:00,
2013-05-16 17:35:00,80.4,46.2,28.50,SE,135,17.2,17.2,30,0.00,,,0.00,VWS V14.01,2013-05-16 22:35:00,
2013-05-16 17:40:00,80.2,46.9,28.50,SSE,158,10.3,17.2,31,0.00,,,0.00,VWS V14.01,2013-05-16 22:40:00,
2013-05-16 17:45:00,79.9,46.6,28.50,SE,135,10.1,14.8,31,0.00,,,0.00,VWS V14.01,2013-05-16 22:45:00,
2013-05-16 17:50:00,79.7,47.3,28.50,SE,135,12.5,13.2,32,0.00,,,0.00,VWS V14.01,2013-05-16 22:50:00,
2013-05-16 17:55:00,79.3,47.8,28.50,SE,135,12.3,12.5,33,0.00,,,0.00,VWS V14.01,2013-05-16 22:55:00,
2013-05-16 18:00:00,78.8,48.1,28.50,SE,135,8.7,13.0,34,0.00,,,0.00,VWS V14.01,2013-05-16 23:00:00,
2013-05-16 18:05:00,78.4,48.5,28.50,SE,135,7.4,11.0,35,0.00,,,0.00,VWS V14.01,2013-05-16 23:05:00,
2013-05-16 18:10:00,77.9,48.8,28.50,ESE,112,5.4,7.8,36,0.00,,,0.00,VWS V14.01,2013-05-16 23:10:00,
2013-05-16 18:15:00,77.5,49.2,28.50,ESE,112,5.8,7.6,37,0.00,,,0.00,VWS V14.01,2013-05-16 23:15:00,
2013-05-16 18:20:00,77.4,48.3,28.50,SSE,158,6.3,6.3,36,0.00,,,0.00,VWS V14.01,2013-05-16 23:20:00,
2013-05-16 18:25:00,77.2,48.9,28.50,SSE,158,5.4,6.5,37,0.00,,,0.00,VWS V14.01,2013-05-16 23:25:00,
2013-05-16 18:30:00,76.8,49.3,28.50,SSE,158,4.9,7.2,38,0.00,,,0.00,VWS V14.01,2013-05-16 23:30:00,
2013-05-16 18:35:00,76.5,49.0,28.50,SE,135,3.4,5.4,38,0.00,,,0.00,VWS V14.01,2013-05-16 23:35:00,
2013-05-16 18:40:00,75.7,51.7,28.52,SE,135,6.0,7.6,43,0.00,,,0.00,VWS V14.01,2013-05-16 23:40:00,
2013-05-16 18:45:00,74.8,52.7,28.52,SE,135,5.6,11.0,46,0.00,,,0.00,VWS V14.01,2013-05-16 23:45:00,
2013-05-16 18:50:00,74.3,52.8,28.52,ENE,68,4.3,6.3,47,0.00,,,0.00,VWS V14.01,2013-05-16 23:50:00,
2013-05-16 18:55:00,73.8,52.3,28.52,ESE,112,3.4,6.3,47,0.00,,,0.00,VWS V14.01,2013-05-16 23:55:00,
2013-05-16 19:00:00,70.2,52.2,28.52,NNW,338,14.1,28.9,53,0.00,,,0.00,VWS V14.01,2013-05-17 00:00:00,
2013-05-16 19:05:00,67.3,54.7,28.52,WNW,292,14.8,24.2,64,0.00,,,0.00,VWS V14.01,2013-05-17 00:05:00,
2013-05-16 19:10:00,66.2,55.7,28.55,NW,315,10.3,19.9,69,0.00,,,0.00,VWS V14.01,2013-05-17 00:10:00,
2013-05-16 19:15:00,65.7,56.8,28.55,NNW,338,9.8,17.2,73,0.00,,,0.00,VWS V14.01,2013-05-17 00:15:00,
2013-05-16 19:20:00,65.5,57.7,28.55,NNW,338,19.9,19.9,76,0.00,,,0.00,VWS V14.01,2013-05-17 00:20:00,
2013-05-16 19:25:00,65.5,58.8,28.55,WNW,292,13.0,19.9,79,0.00,,,0.00,VWS V14.01,2013-05-17 00:25:00,
2013-05-16 19:30:00,65.7,59.0,28.55,WNW,292,13.0,15.4,79,0.00,,,0.00,VWS V14.01,2013-05-17 00:30:00,
2013-05-16 19:35:00,65.7,59.0,28.55,WNW,292,13.2,14.1,79,0.00,,,0.00,VWS V14.01,2013-05-17 00:35:00,
2013-05-16 19:40:00,65.7,58.6,28.55,WNW,292,14.5,16.1,78,0.00,,,0.00,VWS V14.01,2013-05-17 00:40:00,
2013-05-16 19:45:00,65.5,59.2,28.55,WNW,292,10.5,14.5,80,0.04,,,0.04,VWS V14.01,2013-05-17 00:45:00,
2013-05-16 19:50:00,65.5,58.8,28.55,WNW,292,6.5,11.0,79,0.04,,,0.04,VWS V14.01,2013-05-17 00:50:00,
2013-05-16 19:55:00,65.5,58.8,28.58,WSW,248,10.5,12.1,79,0.09,,,0.09,VWS V14.01,2013-05-17 00:55:00,
2013-05-16 20:00:00,65.5,59.2,28.58,SW,225,7.4,11.0,80,0.09,,,0.09,VWS V14.01,2013-05-17 01:00:00,
2013-05-16 20:05:00,65.3,59.0,28.58,SSW,202,4.3,7.8,80,0.09,,,0.09,VWS V14.01,2013-05-17 01:05:00,
2013-05-16 20:10:00,65.1,59.2,28.55,ENE,68,4.3,5.6,81,0.09,,,0.09,VWS V14.01,2013-05-17 01:10:00,
2013-05-16 20:15:00,64.9,59.7,28.55,NE,45,8.7,8.7,83,0.13,,,0.13,VWS V14.01,2013-05-17 01:15:00,
2013-05-16 20:20:00,64.8,60.5,28.55,ENE,68,4.0,10.3,86,0.17,,,0.17,VWS V14.01,2013-05-17 01:20:00,
2013-05-16 20:25:00,64.8,60.8,28.55,SSE,158,6.5,6.9,87,0.17,,,0.17,VWS V14.01,2013-05-17 01:25:00,
2013-05-16 20:30:00,64.4,60.5,28.55,ENE,68,4.5,7.8,87,0.17,,,0.17,VWS V14.01,2013-05-17 01:30:00,
2013-05-16 20:35:00,64.2,60.3,28.55,ESE,112,8.7,8.7,87,0.17,,,0.17,VWS V14.01,2013-05-17 01:35:00,
2013-05-16 20:40:00,64.4,60.5,28.52,ENE,68,7.4,10.3,87,0.17,,,0.17,VWS V14.01,2013-05-17 01:40:00,
2013-05-16 20:45:00,64.4,60.8,28.52,ENE,68,7.6,8.5,88,0.17,,,0.17,VWS V14.01,2013-05-17 01:45:00,
2013-05-16 20:50:00,64.4,61.1,28.52,ENE,68,7.6,9.8,89,0.13,,,0.17,VWS V14.01,2013-05-17 01:50:00,
2013-05-16 20:55:00,64.8,61.8,28.52,ENE,68,8.7,11.0,90,0.13,,,0.17,VWS V14.01,2013-05-17 01:55:00,
2013-05-16 21:00:00,64.8,62.1,28.52,ESE,112,7.4,10.1,91,0.08,,,0.17,VWS V14.01,2013-05-17 02:00:00,
2013-05-16 21:05:00,64.8,61.8,28.52,ENE,68,4.3,9.6,90,0.08,,,0.17,VWS V14.01,2013-05-17 02:05:00,
2013-05-16 21:10:00,64.8,62.1,28.55,ENE,68,8.7,11.2,91,0.08,,,0.17,VWS V14.01,2013-05-17 02:10:00,
2013-05-16 21:15:00,64.9,62.2,28.55,ENE,68,9.8,13.2,91,0.12,,,0.21,VWS V14.01,2013-05-17 02:15:00,
2013-05-16 21:20:00,64.8,62.4,28.55,ENE,68,10.5,12.1,92,0.08,,,0.21,VWS V14.01,2013-05-17 02:20:00,
2013-05-16 21:25:00,64.9,62.9,28.55,ENE,68,12.3,14.8,93,0.04,,,0.21,VWS V14.01,2013-05-17 02:25:00,
2013-05-16 21:30:00,64.9,62.6,28.55,ENE,68,12.8,13.4,92,0.04,,,0.21,VWS V14.01,2013-05-17 02:30:00,
2013-05-16 21:35:00,64.9,61.9,28.55,East,90,9.8,13.9,90,0.04,,,0.21,VWS V14.01,2013-05-17 02:35:00,
2013-05-16 21:40:00,64.9,61.9,28.55,ENE,68,10.5,14.8,90,0.04,,,0.21,VWS V14.01,2013-05-17 02:40:00,
2013-05-16 21:45:00,64.8,61.5,28.55,ENE,68,13.0,14.8,89,0.04,,,0.21,VWS V14.01,2013-05-17 02:45:00,
2013-05-16 21:50:00,64.6,60.3,28.55,ENE,68,10.1,13.6,86,0.04,,,0.21,VWS V14.01,2013-05-17 02:50:00,
2013-05-16 21:55:00,64.6,58.6,28.55,ENE,68,8.5,13.6,81,0.04,,,0.21,VWS V14.01,2013-05-17 02:55:00,
2013-05-16 22:00:00,64.4,58.1,28.55,ENE,68,13.2,15.7,80,0.04,,,0.21,VWS V14.01,2013-05-17 03:00:00,
2013-05-16 22:05:00,64.4,58.1,28.55,ENE,68,11.0,14.1,80,0.04,,,0.21,VWS V14.01,2013-05-17 03:05:00,
2013-05-16 22:10:00,64.4,58.8,28.55,East,90,11.2,15.7,82,0.04,,,0.21,VWS V14.01,2013-05-17 03:10:00,
2013-05-16 22:15:00,64.4,58.8,28.55,ENE,68,12.8,15.7,82,0.04,,,0.21,VWS V14.01,2013-05-17 03:15:00,
2013-05-16 22:20:00,64.4,56.3,28.55,East,90,10.7,17.5,75,0.00,,,0.21,VWS V14.01,2013-05-17 03:20:00,
2013-05-16 22:25:00,64.8,55.2,28.52,East,90,12.5,15.9,71,0.00,,,0.21,VWS V14.01,2013-05-17 03:25:00,
2013-05-16 22:30:00,64.8,54.8,28.52,East,90,10.5,14.8,70,0.00,,,0.21,VWS V14.01,2013-05-17 03:30:00,
2013-05-16 22:35:00,64.6,54.6,28.52,East,90,9.4,13.2,70,0.00,,,0.21,VWS V14.01,2013-05-17 03:35:00,
2013-05-16 22:40:00,64.6,54.2,28.52,ENE,68,13.2,14.5,69,0.00,,,0.21,VWS V14.01,2013-05-17 03:40:00,
2013-05-16 22:45:00,64.8,54.0,28.52,East,90,10.7,17.0,68,0.00,,,0.21,VWS V14.01,2013-05-17 03:45:00,
2013-05-16 22:50:00,64.6,53.8,28.52,ESE,112,10.3,14.5,68,0.00,,,0.21,VWS V14.01,2013-05-17 03:50:00,
2013-05-16 22:55:00,64.4,54.0,28.55,ESE,112,9.2,12.5,69,0.00,,,0.21,VWS V14.01,2013-05-17 03:55:00,
2013-05-16 23:00:00,64.2,53.8,28.55,ESE,112,6.0,11.4,69,0.00,,,0.21,VWS V14.01,2013-05-17 04:00:00,
2013-05-16 23:05:00,64.2,53.8,28.55,East,90,8.7,10.5,69,0.00,,,0.21,VWS V14.01,2013-05-17 04:05:00,
2013-05-16 23:10:00,64.2,53.5,28.52,ESE,112,9.4,9.4,68,0.00,,,0.21,VWS V14.01,2013-05-17 04:10:00,
2013-05-16 23:15:00,64.2,53.5,28.52,ESE,112,8.1,10.7,68,0.00,,,0.21,VWS V14.01,2013-05-17 04:15:00,
2013-05-16 23:20:00,64.2,53.5,28.52,ESE,112,7.6,10.3,68,0.00,,,0.21,VWS V14.01,2013-05-17 04:20:00,
2013-05-16 23:25:00,64.0,53.7,28.52,ESE,112,4.9,7.8,69,0.00,,,0.21,VWS V14.01,2013-05-17 04:25:00,
2013-05-16 23:30:00,64.0,53.7,28.52,ESE,112,6.5,8.7,69,0.00,,,0.21,VWS V14.01,2013-05-17 04:30:00,
2013-05-16 23:35:00,63.9,53.5,28.52,ENE,68,6.5,7.6,69,0.00,,,0.21,VWS V14.01,2013-05-17 04:35:00,
2013-05-16 23:40:00,63.9,53.5,28.52,ESE,112,7.8,9.6,69,0.00,,,0.21,VWS V14.01,2013-05-17 04:40:00,
2013-05-16 23:45:00,63.7,53.7,28.52,ESE,112,6.0,9.2,70,0.00,,,0.21,VWS V14.01,2013-05-17 04:45:00,
2013-05-16 23:50:00,63.3,53.8,28.52,ESE,112,3.8,6.3,71,0.00,,,0.21,VWS V14.01,2013-05-17 04:50:00,
2013-05-16 23:55:00,63.1,54.0,28.52,ESE,112,4.3,5.4,72,0.00,,,0.21,VWS V14.01,2013-05-17 04:55:00,